createdAt,value
2019-02-20T00:02:11.441Z,24.40
2019-02-20T00:04:40.638Z,24.67
2019-02-20T00:07:09.899Z,24.23
2019-02-20T00:09:39.034Z,24.40
2019-02-20T00:12:08.229Z,23.70
2019-02-20T00:14:37.371Z,24.17
2019-02-20T00:17:06.812Z,23.10
2019-02-20T00:19:36.049Z,23.93
2019-02-20T00:22:05.189Z,23.37
2019-02-20T00:24:34.322Z,23.07
2019-02-20T00:27:03.562Z,23.77
2019-02-20T00:29:32.784Z,23.90
2019-02-20T00:32:01.976Z,22.87
2019-02-20T00:34:31.173Z,24.13
2019-02-20T00:37:00.323Z,23.40
2019-02-20T00:39:29.505Z,23.40
2019-02-20T00:41:58.662Z,24.40
2019-02-20T00:44:39.818Z,22.83
2019-02-20T00:47:33.791Z,23.60
2019-02-20T00:50:03.129Z,22.40
2019-02-20T00:52:36.842Z,24.60
2019-02-20T00:55:06.758Z,22.43
2019-02-20T00:57:35.901Z,22.60
2019-02-20T01:00:06.206Z,22.63
2019-02-20T01:02:35.450Z,23.70
2019-02-20T01:05:04.889Z,24.10
2019-02-20T01:07:34.058Z,22.40
2019-02-20T01:10:03.270Z,21.17
2019-02-20T01:12:32.410Z,21.20
2019-02-20T01:15:01.625Z,23.00
2019-02-20T01:17:30.766Z,22.80
2019-02-20T01:19:59.925Z,22.53
2019-02-20T01:22:29.173Z,23.50
2019-02-20T01:24:58.418Z,23.27
2019-02-20T01:27:27.577Z,24.67
2019-02-20T01:29:56.818Z,24.73
2019-02-20T01:32:25.973Z,22.70
2019-02-20T01:34:55.143Z,24.50
2019-02-20T01:37:24.371Z,23.47
2019-02-20T01:39:53.558Z,22.77
2019-02-20T01:42:22.745Z,23.03
2019-02-20T01:44:51.929Z,22.83
2019-02-20T01:47:21.081Z,21.33
2019-02-20T01:49:50.240Z,22.53
2019-02-20T01:52:19.406Z,23.57
2019-02-20T01:54:48.549Z,22.77
2019-02-20T01:57:17.694Z,23.63
2019-02-20T01:59:46.859Z,23.70
2019-02-20T02:02:16.019Z,23.03
2019-02-20T02:04:45.218Z,24.33
2019-02-20T02:07:14.361Z,24.33
2019-02-20T02:09:43.505Z,24.53
2019-02-20T02:12:12.703Z,24.30
2019-02-20T02:14:42.078Z,24.27
2019-02-20T02:17:11.300Z,25.53
2019-02-20T02:19:40.469Z,25.33
2019-02-20T02:22:09.618Z,25.73
2019-02-20T02:24:38.758Z,26.07
2019-02-20T02:27:08.267Z,26.43
2019-02-20T02:29:37.414Z,25.00
2019-02-20T02:32:06.640Z,24.93
2019-02-20T02:34:35.782Z,25.63
2019-02-20T02:37:05.020Z,23.80
2019-02-20T02:39:34.250Z,24.57
2019-02-20T02:42:03.503Z,23.57
2019-02-20T02:44:32.752Z,24.07
2019-02-20T02:47:02.062Z,23.37
2019-02-20T02:49:31.218Z,23.60
2019-02-20T02:52:00.446Z,22.67
2019-02-20T02:54:29.703Z,23.93
2019-02-20T02:56:58.906Z,23.70
2019-02-20T02:59:28.182Z,23.90
2019-02-20T03:01:57.370Z,23.83
2019-02-20T03:04:26.530Z,23.40
2019-02-20T03:06:55.682Z,23.97
2019-02-20T03:09:24.834Z,23.30
2019-02-20T03:11:54.169Z,23.60
2019-02-20T03:14:23.956Z,23.30
2019-02-20T03:16:53.234Z,22.63
2019-02-20T03:19:22.431Z,22.83
2019-02-20T03:21:51.633Z,22.03
2019-02-20T03:24:20.835Z,22.17
2019-02-20T03:26:50.043Z,21.80
2019-02-20T03:29:19.188Z,22.53
2019-02-20T03:31:48.447Z,22.27
2019-02-20T03:34:17.571Z,22.57
2019-02-20T03:36:46.714Z,22.47
2019-02-20T03:39:15.901Z,21.63
2019-02-20T03:41:45.071Z,21.57
2019-02-20T03:44:14.197Z,20.30
2019-02-20T03:46:43.411Z,20.40
2019-02-20T03:49:12.610Z,20.70
2019-02-20T03:51:41.835Z,20.13
2019-02-20T03:54:10.998Z,20.13
2019-02-20T03:56:40.305Z,18.97
2019-02-20T03:59:09.898Z,19.63
2019-02-20T04:01:39.082Z,19.53
2019-02-20T04:04:08.282Z,20.77
2019-02-20T04:06:37.410Z,19.80
2019-02-20T04:09:07.202Z,20.57
2019-02-20T04:11:36.334Z,20.60
2019-02-20T04:14:05.509Z,20.27
2019-02-20T04:16:34.741Z,21.37
2019-02-20T04:19:03.891Z,19.50
2019-02-20T04:21:33.093Z,20.27
2019-02-20T04:24:03.046Z,19.87
2019-02-20T04:26:32.488Z,20.00
2019-02-20T04:29:01.634Z,20.53
2019-02-20T04:31:30.901Z,22.63
2019-02-20T04:34:00.049Z,21.80
2019-02-20T04:36:29.326Z,20.93
2019-02-20T04:38:58.608Z,22.07
2019-02-20T04:41:27.887Z,21.07
2019-02-20T04:43:57.114Z,21.40
2019-02-20T04:46:26.441Z,21.23
2019-02-20T04:48:55.697Z,21.30
2019-02-20T04:51:24.939Z,21.83
2019-02-20T04:53:54.256Z,22.90
2019-02-20T04:56:23.469Z,21.43
2019-02-20T04:58:57.847Z,21.77
2019-02-20T05:01:27.038Z,21.60
2019-02-20T05:03:56.162Z,21.00
2019-02-20T05:06:25.394Z,22.13
2019-02-20T05:08:54.527Z,21.10
2019-02-20T05:11:23.675Z,20.40
2019-02-20T05:13:52.867Z,20.33
2019-02-20T05:16:22.118Z,21.47
2019-02-20T05:18:51.267Z,21.37
2019-02-20T05:21:20.484Z,21.97
2019-02-20T05:23:49.655Z,22.77
2019-02-20T05:26:18.867Z,22.10
2019-02-20T05:28:48.183Z,22.97
2019-02-20T05:31:17.414Z,21.50
2019-02-20T05:33:46.554Z,21.60
2019-02-20T05:36:15.712Z,22.70
2019-02-20T05:38:44.988Z,23.47
2019-02-20T05:41:14.204Z,22.23
2019-02-20T05:43:43.339Z,23.20
2019-02-20T05:46:12.588Z,24.43
2019-02-20T05:48:41.935Z,25.63
2019-02-20T05:51:11.068Z,24.53
2019-02-20T05:53:40.296Z,24.30
2019-02-20T05:56:21.403Z,24.10
2019-02-20T05:58:50.634Z,24.80
2019-02-20T06:01:19.843Z,24.33
2019-02-20T06:03:49.046Z,24.23
2019-02-20T06:06:18.179Z,25.20
2019-02-20T06:08:47.293Z,25.27
2019-02-20T06:11:16.552Z,24.37
2019-02-20T06:13:45.657Z,24.70
2019-02-20T06:16:14.801Z,22.57
2019-02-20T06:18:43.926Z,22.37
2019-02-20T06:21:13.029Z,23.93
2019-02-20T06:23:43.029Z,23.30
2019-02-20T06:26:12.213Z,22.63
2019-02-20T06:28:41.338Z,22.23
2019-02-20T06:31:10.498Z,22.73
2019-02-20T06:33:39.638Z,22.80
2019-02-20T06:36:08.765Z,22.73
2019-02-20T06:38:37.886Z,23.43
2019-02-20T06:41:07.010Z,24.20
2019-02-20T06:43:36.237Z,23.63
2019-02-20T06:46:05.412Z,24.43
2019-02-20T06:48:34.645Z,25.43
2019-02-20T06:51:03.787Z,25.23
2019-02-20T06:53:32.972Z,27.97
2019-02-20T06:56:02.113Z,27.37
2019-02-20T06:58:31.216Z,28.00
2019-02-20T07:01:00.324Z,29.30
2019-02-20T07:03:29.543Z,29.37
2019-02-20T07:06:35.650Z,29.67
2019-02-20T07:09:45.209Z,27.60
2019-02-20T07:12:35.846Z,27.97
2019-02-20T07:15:44.914Z,28.37
2019-02-20T07:18:40.875Z,28.93
2019-02-20T07:21:49.924Z,27.67
2019-02-20T07:24:53.126Z,27.70
2019-02-20T07:28:03.246Z,29.07
2019-02-20T07:30:32.623Z,26.90
2019-02-20T07:33:01.741Z,25.70
2019-02-20T07:35:30.877Z,27.73
2019-02-20T07:38:00.000Z,25.80
2019-02-20T07:40:29.143Z,28.37
2019-02-20T07:42:58.246Z,27.20
2019-02-20T07:45:27.423Z,28.27
2019-02-20T07:47:56.554Z,28.13
2019-02-20T07:50:25.754Z,27.57
2019-02-20T07:52:54.907Z,25.90
2019-02-20T07:55:24.105Z,25.53
2019-02-20T07:57:53.334Z,22.73
2019-02-20T08:00:22.461Z,24.80
2019-02-20T08:02:51.617Z,22.20
2019-02-20T08:05:20.723Z,24.30
2019-02-20T08:07:49.886Z,24.87
2019-02-20T08:10:18.998Z,26.40
2019-02-20T08:12:48.109Z,29.20
2019-02-20T08:15:17.259Z,25.97
2019-02-20T08:17:46.489Z,25.80
2019-02-20T08:20:15.653Z,27.30
2019-02-20T08:22:44.789Z,25.90
2019-02-20T08:25:22.542Z,25.47
2019-02-20T08:27:44.824Z,23.97
2019-02-20T08:30:15.609Z,24.53
2019-02-20T08:32:44.810Z,21.97
2019-02-20T08:35:14.340Z,20.60
2019-02-20T08:37:43.489Z,21.07
2019-02-20T08:40:14.557Z,19.70
2019-02-20T08:42:43.768Z,19.73
2019-02-20T08:45:13.097Z,20.03
2019-02-20T08:47:42.231Z,19.47
2019-02-20T08:50:12.106Z,17.80
2019-02-20T08:52:41.243Z,19.63
2019-02-20T08:55:10.393Z,20.87
2019-02-20T08:57:39.514Z,20.53
2019-02-20T09:00:11.225Z,20.10
2019-02-20T09:02:40.341Z,21.97
2019-02-20T09:05:09.558Z,19.03
2019-02-20T09:07:38.677Z,19.33
2019-02-20T09:10:08.546Z,18.20
2019-02-20T09:12:37.653Z,16.37
2019-02-20T09:15:07.573Z,17.93
2019-02-20T09:17:36.722Z,18.03
2019-02-20T09:20:06.893Z,18.30
2019-02-20T09:22:36.066Z,20.07
2019-02-20T09:25:06.219Z,17.60
2019-02-20T09:27:35.341Z,18.27
2019-02-20T09:30:04.957Z,18.03
2019-02-20T09:32:34.105Z,18.07
2019-02-20T09:35:03.254Z,15.70
2019-02-20T09:37:32.368Z,14.10
2019-02-20T09:40:01.494Z,16.50
2019-02-20T09:42:30.615Z,16.77
2019-02-20T09:44:59.930Z,19.63
2019-02-20T09:47:29.059Z,19.67
2019-02-20T09:49:58.509Z,17.37
2019-02-20T09:52:27.653Z,17.10
2019-02-20T09:54:56.793Z,17.97
2019-02-20T09:57:25.957Z,16.93
2019-02-20T09:59:55.113Z,14.87
2019-02-20T10:02:24.322Z,15.10
2019-02-20T10:04:53.494Z,15.60
2019-02-20T10:07:22.724Z,16.13
2019-02-20T10:09:51.877Z,16.83
2019-02-20T10:12:21.017Z,16.13
2019-02-20T10:14:50.142Z,16.83
2019-02-20T10:17:19.269Z,17.47
2019-02-20T10:19:48.520Z,16.67
2019-02-20T10:22:17.660Z,15.33
2019-02-20T10:24:46.851Z,14.33
2019-02-20T10:27:16.212Z,14.33
2019-02-20T10:29:45.362Z,15.63
2019-02-20T10:32:14.507Z,17.70
2019-02-20T10:34:43.677Z,15.50
2019-02-20T10:37:12.797Z,16.03
2019-02-20T10:39:41.949Z,17.80
2019-02-20T10:42:11.086Z,15.20
2019-02-20T10:44:40.245Z,14.57
2019-02-20T10:47:09.421Z,13.87
2019-02-20T10:49:38.554Z,14.20
2019-02-20T10:52:07.698Z,14.90
2019-02-20T10:54:36.827Z,15.37
2019-02-20T10:57:05.954Z,15.40
2019-02-20T10:59:35.129Z,15.30
2019-02-20T11:02:04.447Z,14.27
2019-02-20T11:04:33.634Z,14.37
2019-02-20T11:07:02.909Z,15.03
2019-02-20T11:09:32.098Z,14.77
2019-02-20T11:12:01.219Z,14.30
2019-02-20T11:14:30.565Z,12.63
2019-02-20T11:16:59.794Z,12.60
2019-02-20T11:19:28.949Z,14.37
2019-02-20T11:21:58.069Z,12.70
2019-02-20T11:24:27.218Z,12.47
2019-02-20T11:26:56.405Z,11.90
2019-02-20T11:29:25.578Z,11.83
2019-02-20T11:31:56.467Z,12.17
2019-02-20T11:34:25.661Z,11.77
2019-02-20T11:36:54.858Z,10.70
2019-02-20T11:39:24.048Z,10.10
2019-02-20T11:41:53.207Z,9.17
2019-02-20T11:44:22.457Z,9.73
2019-02-20T11:46:51.577Z,9.33
2019-02-20T11:49:20.733Z,8.90
2019-02-20T11:51:49.953Z,8.30
2019-02-20T11:54:19.194Z,9.37
2019-02-20T11:56:48.321Z,10.80
2019-02-20T11:59:17.605Z,9.33
2019-02-20T12:01:46.787Z,10.40
2019-02-20T12:04:16.021Z,10.50
2019-02-20T12:06:45.149Z,10.17
2019-02-20T12:09:14.424Z,10.97
2019-02-20T12:11:43.589Z,9.60
2019-02-20T12:14:12.717Z,12.17
2019-02-20T12:16:41.886Z,11.87
2019-02-20T12:19:11.127Z,11.80
2019-02-20T12:21:40.251Z,10.47
2019-02-20T12:24:09.382Z,13.20
2019-02-20T12:26:38.549Z,12.60
2019-02-20T12:29:07.693Z,10.27
2019-02-20T12:31:36.822Z,9.37
2019-02-20T12:34:05.924Z,10.97
2019-02-20T12:36:35.089Z,9.73
2019-02-20T12:39:05.247Z,9.60
2019-02-20T12:41:34.366Z,9.13
2019-02-20T12:44:03.513Z,10.23
2019-02-20T12:46:32.635Z,10.87
2019-02-20T12:49:01.814Z,10.83
2019-02-20T12:51:30.945Z,10.00
2019-02-20T12:54:00.078Z,10.80
2019-02-20T12:56:29.221Z,10.77
2019-02-20T12:58:58.333Z,10.93
2019-02-20T13:01:27.438Z,13.33
2019-02-20T13:03:56.641Z,12.07
2019-02-20T13:06:25.902Z,11.33
2019-02-20T13:08:55.014Z,9.27
2019-02-20T13:11:24.129Z,11.10
2019-02-20T13:13:53.351Z,8.37
2019-02-20T13:16:22.457Z,7.53
2019-02-20T13:18:51.602Z,8.03
2019-02-20T13:21:20.814Z,7.53
2019-02-20T13:23:49.978Z,7.23
2019-02-20T13:26:19.116Z,8.23
2019-02-20T13:28:48.239Z,8.03
2019-02-20T13:31:17.392Z,9.73
2019-02-20T13:33:46.581Z,9.50
2019-02-20T13:36:15.814Z,8.27
2019-02-20T13:38:44.941Z,9.83
2019-02-20T13:41:14.057Z,11.20
2019-02-20T13:43:43.178Z,12.30
2019-02-20T13:46:12.412Z,11.67
2019-02-20T13:48:41.553Z,13.03
2019-02-20T13:51:10.693Z,12.90
2019-02-20T13:53:46.271Z,13.63
2019-02-20T13:56:10.805Z,10.93
2019-02-20T13:58:40.096Z,10.33
2019-02-20T14:01:09.397Z,12.10
2019-02-20T14:03:38.598Z,12.03
2019-02-20T14:06:07.897Z,12.03
2019-02-20T14:08:37.101Z,13.00
2019-02-20T14:11:06.630Z,13.40
2019-02-20T14:13:35.809Z,14.63
2019-02-20T14:16:04.932Z,16.27
2019-02-20T14:18:34.164Z,13.80
2019-02-20T14:21:03.386Z,12.53
2019-02-20T14:23:32.497Z,11.53
2019-02-20T14:26:01.649Z,11.67
2019-02-20T14:28:30.909Z,11.70
2019-02-20T14:31:00.051Z,11.47
2019-02-20T14:33:29.225Z,13.00
2019-02-20T14:35:58.353Z,13.20
2019-02-20T14:38:27.607Z,14.80
2019-02-20T14:40:56.795Z,14.67
2019-02-20T14:43:26.324Z,15.20
2019-02-20T14:45:55.541Z,12.83
2019-02-20T14:48:24.763Z,9.60
2019-02-20T14:50:53.985Z,10.50
2019-02-20T14:53:23.245Z,11.83
2019-02-20T14:55:52.357Z,11.27
2019-02-20T14:58:21.921Z,9.10
2019-02-20T15:00:51.086Z,10.90
2019-02-20T15:03:20.194Z,12.10
2019-02-20T15:05:49.418Z,11.57
2019-02-20T15:08:18.618Z,9.03
2019-02-20T15:10:47.798Z,8.23
2019-02-20T15:13:17.038Z,8.90
2019-02-20T15:15:47.445Z,8.80
2019-02-20T15:18:16.846Z,11.20
2019-02-20T15:20:46.018Z,13.13
2019-02-20T15:23:15.197Z,9.77
2019-02-20T15:25:44.337Z,11.20
2019-02-20T15:28:13.573Z,9.20
2019-02-20T15:30:43.077Z,7.33
2019-02-20T15:33:12.203Z,8.40
2019-02-20T15:35:41.401Z,8.53
2019-02-20T15:38:10.626Z,8.03
2019-02-20T15:40:39.769Z,9.23
2019-02-20T15:43:08.957Z,12.40
2019-02-20T15:45:38.451Z,10.97
2019-02-20T15:48:08.061Z,13.67
2019-02-20T15:50:37.268Z,11.60
2019-02-20T15:53:07.047Z,9.73
2019-02-20T15:55:36.406Z,13.30
2019-02-20T15:58:05.614Z,16.90
2019-02-20T16:00:35.226Z,18.23
2019-02-20T16:03:05.146Z,17.20
2019-02-20T16:05:34.474Z,14.13
2019-02-20T16:08:03.770Z,19.10
2019-02-20T16:10:34.781Z,15.53
2019-02-20T16:13:03.950Z,11.00
2019-02-20T16:15:33.158Z,14.00
2019-02-20T16:18:02.310Z,17.17
2019-02-20T16:20:31.564Z,20.23
2019-02-20T16:23:00.760Z,19.50
2019-02-20T16:25:29.903Z,16.43
2019-02-20T16:27:59.205Z,19.60
2019-02-20T16:30:28.406Z,24.10
2019-02-20T16:32:57.952Z,20.00
2019-02-20T16:35:27.165Z,22.57
2019-02-20T16:37:56.318Z,19.27
2019-02-20T16:40:25.550Z,21.43
2019-02-20T16:42:54.653Z,21.07
2019-02-20T16:45:24.440Z,22.37
2019-02-20T16:47:53.949Z,25.67
2019-02-20T16:50:23.133Z,26.43
2019-02-20T16:52:52.350Z,27.33
2019-02-20T16:55:22.664Z,26.37
2019-02-20T16:57:56.565Z,26.97
2019-02-20T17:00:23.281Z,23.87
2019-02-20T17:02:52.876Z,22.27
2019-02-20T17:05:22.091Z,25.43
2019-02-20T17:07:51.195Z,26.23
2019-02-20T17:10:20.372Z,24.77
2019-02-20T17:12:49.485Z,21.73
2019-02-20T17:15:18.698Z,24.50
2019-02-20T17:17:48.358Z,24.77
2019-02-20T17:20:17.957Z,26.60
2019-02-20T17:22:47.325Z,27.37
2019-02-20T17:25:17.158Z,28.00
2019-02-20T17:27:50.401Z,20.93
2019-02-20T17:30:19.845Z,20.53
2019-02-20T17:32:49.513Z,24.03
2019-02-20T17:35:18.737Z,23.53
2019-02-20T17:37:47.975Z,25.93
2019-02-20T17:40:17.202Z,28.67
2019-02-20T17:42:46.408Z,31.23
2019-02-20T17:45:15.652Z,29.47
2019-02-20T17:47:45.175Z,28.20
2019-02-20T17:50:15.273Z,28.47
2019-02-20T17:52:44.484Z,25.47
2019-02-20T17:55:13.730Z,25.07
2019-02-20T17:57:42.977Z,26.10
2019-02-20T18:00:12.938Z,24.67
2019-02-20T18:02:42.045Z,23.57
2019-02-20T18:05:11.379Z,21.23
2019-02-20T18:07:48.780Z,24.07
2019-02-20T18:10:11.533Z,24.03
2019-02-20T18:12:40.670Z,24.40
2019-02-20T18:15:10.199Z,22.23
2019-02-20T18:17:39.321Z,26.27
2019-02-20T18:20:08.819Z,27.37
2019-02-20T18:22:37.958Z,27.80
2019-02-20T18:25:07.225Z,28.07
2019-02-20T18:27:36.368Z,26.97
2019-02-20T18:30:06.139Z,26.63
2019-02-20T18:32:35.249Z,28.13
2019-02-20T18:35:04.881Z,28.77
2019-02-20T18:37:34.014Z,26.07
2019-02-20T18:40:03.372Z,24.70
2019-02-20T18:42:32.565Z,25.10
2019-02-20T18:45:01.683Z,23.63
2019-02-20T18:47:30.852Z,24.73
2019-02-20T18:50:00.002Z,25.27
2019-02-20T18:52:29.204Z,25.77
2019-02-20T18:55:05.541Z,27.43
2019-02-20T18:57:29.230Z,26.67
2019-02-20T18:59:58.365Z,26.77
2019-02-20T19:02:27.505Z,26.87
2019-02-20T19:04:56.672Z,24.90
2019-02-20T19:07:25.895Z,25.93
2019-02-20T19:09:55.113Z,28.40
2019-02-20T19:12:45.713Z,28.30
2019-02-20T19:15:22.397Z,30.27
2019-02-20T19:18:04.429Z,30.60
2019-02-20T19:21:10.727Z,32.03
2019-02-20T19:24:32.077Z,31.53
2019-02-20T19:27:32.403Z,29.67
2019-02-20T19:30:33.536Z,26.23
2019-02-20T19:33:22.559Z,30.20
2019-02-20T19:36:30.028Z,34.80
2019-02-20T19:39:28.841Z,32.63
2019-02-20T19:42:38.139Z,28.50
2019-02-20T19:46:06.564Z,28.17
2019-02-20T19:49:05.241Z,23.90
2019-02-20T19:51:56.179Z,22.97
2019-02-20T19:54:53.599Z,23.80
2019-02-20T19:58:00.393Z,22.77
2019-02-20T20:01:25.889Z,21.53
2019-02-20T20:04:23.089Z,23.67
2019-02-20T20:07:37.915Z,26.20
2019-02-20T20:10:53.469Z,28.10
2019-02-20T20:13:44.609Z,27.90
2019-02-20T20:16:39.457Z,29.63
2019-02-20T20:19:27.426Z,32.63
2019-02-20T20:22:29.266Z,32.60
2019-02-20T20:25:39.437Z,32.50
2019-02-20T20:28:44.561Z,32.87
2019-02-20T20:32:00.774Z,32.10
2019-02-20T20:34:55.234Z,27.57
2019-02-20T20:38:04.934Z,28.63
2019-02-20T20:41:09.154Z,24.57
2019-02-20T20:44:28.217Z,25.50
2019-02-20T20:47:25.079Z,24.33
2019-02-20T20:50:06.266Z,23.93
2019-02-20T20:52:57.621Z,23.37
2019-02-20T20:56:10.433Z,23.60
2019-02-20T20:59:17.256Z,22.30
2019-02-20T21:01:44.137Z,21.70
2019-02-20T21:04:57.437Z,22.90
2019-02-20T21:07:35.263Z,24.10
2019-02-20T21:10:48.591Z,24.63
2019-02-20T21:14:13.344Z,25.47
2019-02-20T21:17:01.764Z,28.00
2019-02-20T21:19:45.674Z,31.23
2019-02-20T21:23:06.870Z,31.20
2019-02-20T21:26:23.838Z,31.43
2019-02-20T21:29:42.929Z,29.93
2019-02-20T21:32:49.901Z,30.30
2019-02-20T21:35:46.231Z,29.17
2019-02-20T21:38:59.482Z,30.87
2019-02-20T21:41:38.998Z,30.97
2019-02-20T21:44:27.168Z,30.03
2019-02-20T21:47:13.351Z,30.23
2019-02-20T21:50:26.211Z,31.63
2019-02-20T21:53:08.366Z,31.57
2019-02-20T21:56:10.893Z,30.30
2019-02-20T21:59:11.262Z,29.73
2019-02-20T22:02:18.652Z,29.03
2019-02-20T22:05:36.959Z,30.60
2019-02-20T22:08:47.294Z,29.97
2019-02-20T22:11:50.385Z,32.60
2019-02-20T22:14:56.928Z,36.53
2019-02-20T22:17:59.361Z,35.80
2019-02-20T22:20:59.801Z,38.30
2019-02-20T22:24:05.141Z,35.80
2019-02-20T22:26:57.506Z,35.33
2019-02-20T22:29:59.373Z,37.43
2019-02-20T22:32:58.281Z,38.23
2019-02-20T22:35:57.538Z,37.10
2019-02-20T22:39:13.153Z,39.27
2019-02-20T22:42:22.314Z,37.87
2019-02-20T22:45:26.989Z,35.67
2019-02-20T22:48:20.841Z,31.13
2019-02-20T22:51:18.384Z,32.37
2019-02-20T22:54:39.802Z,28.90
2019-02-20T22:57:38.910Z,29.23
2019-02-20T23:01:00.033Z,29.97
2019-02-20T23:04:12.244Z,29.67
2019-02-20T23:07:46.945Z,27.03
2019-02-20T23:10:45.453Z,29.07
2019-02-20T23:13:49.172Z,28.77
2019-02-20T23:16:18.328Z,29.77
2019-02-20T23:18:47.515Z,31.27
2019-02-20T23:21:16.634Z,33.00
2019-02-20T23:23:45.767Z,31.03
2019-02-20T23:26:14.993Z,31.50
2019-02-20T23:28:44.142Z,30.07
2019-02-20T23:31:13.325Z,30.77
2019-02-20T23:33:42.442Z,29.13
2019-02-20T23:36:11.638Z,28.87
2019-02-20T23:38:40.801Z,28.00
2019-02-20T23:41:09.914Z,26.57
2019-02-20T23:43:39.028Z,26.97
2019-02-20T23:46:08.149Z,25.70
2019-02-20T23:48:37.277Z,25.70
2019-02-20T23:51:06.570Z,23.30
2019-02-20T23:53:35.802Z,24.27
2019-02-20T23:56:05.076Z,22.63
2019-02-20T23:58:34.186Z,25.63
